Time;durP1;ratioP1;P1;durP2;ratioP2;P2;SDS_P1;SDS_P2;PMS_P1;PMS_P2;Temp;Humidity;BMP_temperature;BMP_pressure;BME280_temperature;BME280_humidity;BME280_pressure;Samples;Min_cycle;Max_cycle;Signal;HPM_P1;HPM_P2
2022/04/01 00:01:06;;;;;;;11.40;4.82;;;;;;;-0.27;100.00;100346.94;5008214;28;20073;-58
2022/04/01 00:03:34;;;;;;;9.57;5.05;;;;;;;-0.27;100.00;100346.06;5007758;28;20041;-58
2022/04/01 00:06:03;;;;;;;10.85;4.82;;;;;;;-0.27;100.00;100346.06;5007721;28;20086;-59
2022/04/01 00:08:31;;;;;;;9.70;4.70;;;;;;;-0.29;100.00;100353.84;5008094;28;20381;-58
2022/04/01 00:10:59;;;;;;;9.30;4.88;;;;;;;-0.28;100.00;100350.41;5008762;28;20056;-58
2022/04/01 00:13:27;;;;;;;8.10;4.75;;;;;;;-0.22;100.00;100355.41;5006223;28;20038;-58
2022/04/01 00:15:57;;;;;;;11.35;4.72;;;;;;;-0.25;100.00;100359.81;5006912;28;20505;-58
2022/04/01 00:18:25;;;;;;;8.38;4.80;;;;;;;-0.27;100.00;100358.97;5007876;28;20057;-58
2022/04/01 00:20:53;;;;;;;10.38;5.20;;;;;;;-0.28;100.00;100360.72;5007541;28;20049;-58
2022/04/01 00:23:21;;;;;;;7.95;4.47;;;;;;;-0.27;100.00;100358.97;5008078;28;20052;-58
2022/04/01 00:25:49;;;;;;;10.50;4.88;;;;;;;-0.31;100.00;100362.53;5007458;28;20073;-59
2022/04/01 00:28:17;;;;;;;9.00;5.03;;;;;;;-0.30;100.00;100364.25;5008455;28;20039;-58
2022/04/01 00:30:45;;;;;;;8.98;4.68;;;;;;;-0.25;100.00;100370.97;5008332;28;20048;-58
2022/04/01 00:33:17;;;;;;;7.95;4.47;;;;;;;-0.25;100.00;100367.56;5008008;28;20523;-58
2022/04/01 00:35:45;;;;;;;9.68;4.93;;;;;;;-0.28;100.00;100367.66;5006503;28;20509;-58
2022/04/01 00:38:14;;;;;;;8.52;4.78;;;;;;;-0.27;100.00;100380.53;5008526;28;20049;-58
2022/04/01 00:40:42;;;;;;;11.68;5.75;;;;;;;-0.35;100.00;100370.38;5009110;28;20057;-58
2022/04/01 00:43:11;;;;;;;9.00;4.90;;;;;;;-0.28;100.00;100372.81;5008449;28;20501;-58
2022/04/01 00:45:39;;;;;;;9.70;4.82;;;;;;;-0.28;100.00;100381.41;5007642;28;20050;-58
2022/04/01 00:48:08;;;;;;;10.10;5.10;;;;;;;-0.35;100.00;100382.47;5005911;28;20057;-58
2022/04/01 00:50:38;;;;;;;8.45;4.75;;;;;;;-0.30;100.00;100385.78;5007091;28;20050;-58
2022/04/01 00:53:06;;;;;;;10.70;5.07;;;;;;;-0.33;100.00;100378.09;5008141;28;20129;-58
2022/04/01 00:55:34;;;;;;;8.75;4.57;;;;;;;-0.38;100.00;100385.97;5009092;28;20045;-58
2022/04/01 00:58:05;;;;;;;9.10;5.30;;;;;;;-0.41;100.00;100386.06;5008630;28;20509;-59
2022/04/01 01:00:35;;;;;;;8.63;4.90;;;;;;;-0.37;100.00;100385.09;5008622;28;20120;-58
2022/04/01 01:03:04;;;;;;;9.30;4.57;;;;;;;-0.37;100.00;100392.84;5007485;28;21031;-58
2022/04/01 01:05:33;;;;;;;9.13;5.57;;;;;;;-0.38;100.00;100390.31;5007012;28;20050;-58
2022/04/01 01:08:05;;;;;;;9.93;5.50;;;;;;;-0.38;100.00;100401.50;5008550;28;20049;-59
2022/04/01 01:10:34;;;;;;;10.05;4.65;;;;;;;-0.35;100.00;100400.56;5008256;28;20050;-58
2022/04/01 01:13:02;;;;;;;8.95;5.00;;;;;;;-0.42;100.00;100404.22;5006958;28;20042;-59
2022/04/01 01:15:31;;;;;;;9.25;5.45;;;;;;;-0.43;100.00;100405.94;5007736;28;20054;-58
2022/04/01 01:17:59;;;;;;;9.38;5.43;;;;;;;-0.43;100.00;100402.50;5007562;28;20050;-59
2022/04/01 01:20:27;;;;;;;11.40;5.88;;;;;;;-0.40;100.00;100407.59;5006677;28;20042;-58
2022/04/01 01:22:57;;;;;;;10.45;6.38;;;;;;;-0.48;100.00;100409.53;5008383;28;20104;-58
2022/04/01 01:25:27;;;;;;;11.40;5.78;;;;;;;-0.47;100.00;100408.66;5007066;28;20062;-59
2022/04/01 01:27:55;;;;;;;11.32;6.55;;;;;;;-0.47;100.00;100400.88;5008051;28;20060;-58
2022/04/01 01:30:24;;;;;;;11.32;6.82;;;;;;;-0.46;100.00;100411.19;5007896;28;20050;-60
2022/04/01 01:32:52;;;;;;;11.15;6.80;;;;;;;-0.51;100.00;100411.28;5007841;28;20042;-60
2022/04/01 01:35:21;;;;;;;11.73;6.82;;;;;;;-0.48;100.00;100401.78;5009850;28;20049;-60
2022/04/01 01:37:49;;;;;;;10.50;6.35;;;;;;;-0.43;100.00;100405.94;5011668;28;20448;-60
2022/04/01 01:40:17;;;;;;;9.93;6.05;;;;;;;-0.48;100.00;100404.34;5011876;28;20705;-61
2022/04/01 01:42:46;;;;;;;10.80;6.25;;;;;;;-0.55;100.00;100394.16;5011213;28;20141;-60
2022/04/01 01:45:15;;;;;;;9.77;6.00;;;;;;;-0.51;100.00;100410.44;5010194;28;20054;-60
2022/04/01 01:47:43;;;;;;;10.27;6.75;;;;;;;-0.56;100.00;100407.13;5011022;28;20045;-60
2022/04/01 01:55:43;;;;;;;10.75;6.45;;;;;;;-0.66;100.00;100406.53;5011938;28;20405;-60
2022/04/01 01:58:13;;;;;;;10.65;6.00;;;;;;;-0.60;100.00;100416.72;5011014;28;20426;-60
2022/04/01 02:00:42;;;;;;;9.68;5.68;;;;;;;-0.64;100.00;100412.50;5011438;28;21083;-60
2022/04/01 02:03:10;;;;;;;8.90;5.63;;;;;;;-0.67;100.00;100422.91;5010577;28;20046;-60
2022/04/01 02:05:39;;;;;;;10.38;5.70;;;;;;;-0.64;100.00;100412.50;5009787;28;20070;-60
2022/04/01 02:08:08;;;;;;;9.82;5.90;;;;;;;-0.62;100.00;100412.47;5010546;28;20115;-60
2022/04/01 02:10:36;;;;;;;8.95;5.00;;;;;;;-0.60;100.00;100424.47;5011058;28;20058;-60
2022/04/01 02:13:05;;;;;;;9.50;5.50;;;;;;;-0.62;100.00;100433.97;5011206;28;20426;-60
2022/04/01 02:15:34;;;;;;;10.75;6.07;;;;;;;-0.66;100.00;100426.34;5010787;28;20516;-60
2022/04/01 02:18:03;;;;;;;10.75;5.65;;;;;;;-0.69;100.00;100424.69;5009940;28;20049;-59
2022/04/01 02:20:33;;;;;;;9.27;5.53;;;;;;;-0.68;100.00;100441.91;5009100;28;20041;-60
2022/04/01 02:23:01;;;;;;;8.82;5.28;;;;;;;-0.70;100.00;100441.06;5011234;28;20050;-60
2022/04/01 02:25:30;;;;;;;10.20;5.47;;;;;;;-0.70;100.00;100447.06;5010826;28;20072;-60
2022/04/01 02:27:59;;;;;;;9.20;5.32;;;;;;;-0.66;100.00;100447.84;5010473;28;20548;-60
2022/04/01 02:30:27;;;;;;;7.55;4.85;;;;;;;-0.65;100.00;100452.13;5010391;28;20488;-60
2022/04/01 02:32:57;;;;;;;9.55;5.13;;;;;;;-0.66;100.00;100452.19;5010125;28;20711;-60
2022/04/01 02:35:25;;;;;;;9.23;5.18;;;;;;;-0.67;100.00;100456.47;5008976;28;20050;-60
2022/04/01 02:37:53;;;;;;;8.15;4.93;;;;;;;-0.65;100.00;100459.88;5010834;28;20547;-60
2022/04/01 02:40:22;;;;;;;8.40;4.55;;;;;;;-0.68;100.00;100460.81;5010617;28;20053;-60
2022/04/01 02:42:53;;;;;;;8.45;4.78;;;;;;;-0.65;100.00;100462.47;5009179;28;20103;-60
2022/04/01 02:45:24;;;;;;;9.20;4.90;;;;;;;-0.63;100.00;100455.50;5009168;28;20164;-60
2022/04/01 02:47:52;;;;;;;8.73;4.50;;;;;;;-0.67;100.00;100461.66;5009600;28;20053;-59
2022/04/01 02:50:22;;;;;;;8.80;4.90;;;;;;;-0.72;100.00;100459.19;5008535;28;20050;-60
2022/04/01 02:52:50;;;;;;;10.07;4.88;;;;;;;-0.67;100.00;100466.81;5025265;28;20061;-60
2022/04/01 02:55:18;;;;;;;11.77;4.85;;;;;;;-0.69;100.00;100468.59;5010144;28;20060;-60
2022/04/01 02:57:47;;;;;;;9.30;5.43;;;;;;;-0.71;100.00;100470.34;5009924;28;20524;-60
2022/04/01 03:00:21;;;;;;;12.13;5.68;;;;;;;-0.72;100.00;100472.09;5010521;28;20845;-60
2022/04/01 03:02:50;;;;;;;8.32;4.88;;;;;;;-0.66;100.00;100480.59;5009150;28;20046;-60
2022/04/01 03:05:19;;;;;;;8.63;5.70;;;;;;;-0.69;100.00;100484.94;5008679;28;20050;-60
2022/04/01 03:07:48;;;;;;;9.13;5.60;;;;;;;-0.69;100.00;100490.09;5009958;28;20125;-60
2022/04/01 03:10:17;;;;;;;9.70;5.43;;;;;;;-0.68;100.00;100483.22;5009672;28;20042;-60
2022/04/01 03:12:45;;;;;;;9.52;4.80;;;;;;;-0.66;100.00;100483.19;5009825;28;20060;-60
2022/04/01 03:15:13;;;;;;;8.18;5.03;;;;;;;-0.61;100.00;100487.34;5009888;28;20527;-60
2022/04/01 03:17:41;;;;;;;8.85;5.15;;;;;;;-0.63;100.00;100498.59;5009257;28;20048;-60
2022/04/01 03:20:13;;;;;;;9.20;5.43;;;;;;;-0.69;100.00;100494.44;5008136;28;20505;-60
2022/04/01 03:22:42;;;;;;;9.05;5.05;;;;;;;-0.62;100.00;100490.81;5009994;28;20508;-60
2022/04/01 03:25:15;;;;;;;8.38;4.70;;;;;;;-0.67;100.00;100495.22;5009557;28;20128;-60
2022/04/01 03:27:43;;;;;;;10.20;4.95;;;;;;;-0.71;100.00;100498.78;5009114;28;20049;-60
2022/04/01 03:30:13;;;;;;;8.40;4.95;;;;;;;-0.62;100.00;100497.72;5009209;28;20070;-60
2022/04/01 03:32:42;;;;;;;8.43;4.82;;;;;;;-0.63;100.00;100501.19;5008697;28;20104;-59
2022/04/01 03:35:14;;;;;;;10.27;4.97;;;;;;;-0.68;100.00;100507.31;5006397;28;20045;-60
2022/04/01 03:37:43;;;;;;;8.30;4.07;;;;;;;-0.69;100.00;100515.09;5009846;28;20708;-60
2022/04/01 03:40:14;;;;;;;9.50;4.50;;;;;;;-0.69;100.00;100513.34;5009376;28;20088;-60
2022/04/01 03:42:44;;;;;;;7.93;4.38;;;;;;;-0.69;100.00;100515.94;5008059;28;20053;-60
2022/04/01 03:45:13;;;;;;;8.77;5.03;;;;;;;-0.68;100.00;100527.13;5008003;28;20520;-60
2022/04/01 03:47:51;;;;;;;11.35;5.18;;;;;;;-0.74;100.00;100527.25;5008591;28;20567;-60
2022/04/01 03:50:29;;;;;;;8.98;4.97;;;;;;;-0.74;100.00;100530.69;5007275;28;20046;-60
2022/04/01 03:53:02;;;;;;;10.52;5.15;;;;;;;-0.78;100.00;100525.63;5009045;28;20061;-60
2022/04/01 03:55:35;;;;;;;10.00;5.22;;;;;;;-0.76;100.00;100535.06;5008706;28;20042;-60
2022/04/01 03:58:06;;;;;;;;;;;;;;;-0.74;100.00;100535.00;5009365;28;20049;-60
2022/04/01 04:00:35;;;;;;;9.30;5.18;;;;;;;-0.79;100.00;100534.25;5009545;28;19921;-60
2022/04/01 04:03:08;;;;;;;9.35;5.28;;;;;;;-0.75;100.00;100534.16;5008022;28;20047;-60
2022/04/01 04:05:38;;;;;;;10.82;5.68;;;;;;;-0.74;100.00;100542.75;5007749;28;20528;-60
2022/04/01 04:08:10;;;;;;;9.05;5.00;;;;;;;-0.75;100.00;100544.50;5008527;28;20100;-59
2022/04/01 04:10:41;;;;;;;8.90;5.03;;;;;;;-0.72;100.00;100541.00;5008757;28;20054;-59
2022/04/01 04:13:12;;;;;;;10.90;4.72;;;;;;;-0.70;100.00;100554.72;5008495;28;20385;-60
2022/04/01 04:15:44;;;;;;;8.20;4.88;;;;;;;-0.67;100.00;100559.81;5008798;28;20077;-60
2022/04/01 04:18:15;;;;;;;9.02;4.88;;;;;;;-0.72;100.00;100559.09;5007929;28;20049;-59
2022/04/01 04:20:57;;;;;;;8.18;4.70;;;;;;;-0.68;100.00;100574.47;5007807;28;20053;-60
2022/04/01 04:23:31;;;;;;;7.43;4.32;;;;;;;-0.69;100.00;100561.59;5008776;28;20053;-60
2022/04/01 04:26:05;;;;;;;7.30;4.30;;;;;;;-0.69;100.00;100579.66;5008585;28;20050;-60
2022/04/01 04:28:37;;;;;;;7.40;4.55;;;;;;;-0.76;100.00;100591.88;5008640;28;20057;-59
2022/04/01 04:31:09;;;;;;;8.38;4.13;;;;;;;-0.77;100.00;100577.25;5008472;28;20508;-59
2022/04/01 04:33:46;;;;;;;7.95;4.15;;;;;;;-0.79;100.00;100589.38;5008619;28;20057;-60
2022/04/01 04:36:36;;;;;;;8.90;4.53;;;;;;;-0.75;100.00;100580.66;5007757;28;20421;-60
2022/04/01 04:39:07;;;;;;;6.68;3.60;;;;;;;-0.74;100.00;100581.50;5009092;28;20053;-59
2022/04/01 04:41:37;;;;;;;7.35;4.05;;;;;;;-0.66;100.00;100587.34;5008804;28;20085;-61
2022/04/01 04:44:05;;;;;;;8.90;3.80;;;;;;;-0.77;100.00;100599.66;5008071;28;20413;-59
2022/04/01 04:46:35;;;;;;;7.28;3.45;;;;;;;-0.79;100.00;100589.38;5008376;28;20097;-59
2022/04/01 04:49:04;;;;;;;7.30;4.03;;;;;;;-0.72;100.00;100603.00;5006912;28;21149;-60
2022/04/01 04:51:32;;;;;;;9.23;4.40;;;;;;;-0.77;100.00;100607.41;5006813;28;20042;-60
2022/04/01 04:54:03;;;;;;;9.52;3.83;;;;;;;-0.77;100.00;100602.22;5008635;28;20044;-60
2022/04/01 04:56:32;;;;;;;7.20;3.80;;;;;;;-0.79;100.00;100607.44;5008420;28;20050;-60
2022/04/01 04:59:02;;;;;;;8.98;3.85;;;;;;;-0.81;100.00;100606.59;5008377;28;20049;-60
2022/04/01 05:01:38;;;;;;;6.90;3.45;;;;;;;-0.76;100.00;100614.28;5008501;28;20049;-59
2022/04/01 05:04:19;;;;;;;7.82;3.85;;;;;;;-0.77;100.00;100610.81;5006912;28;20096;-60
2022/04/01 05:07:05;;;;;;;6.75;3.38;;;;;;;-0.75;100.00;100618.53;5007805;28;20065;-59
2022/04/01 05:09:40;;;;;;;7.57;3.42;;;;;;;-0.81;100.00;100624.69;5011966;28;20053;-59
2022/04/01 05:12:23;;;;;;;8.95;3.30;;;;;;;-0.76;100.00;100629.78;5011974;28;20104;-59
2022/04/01 05:15:05;;;;;;;7.55;3.83;;;;;;;-0.76;100.00;100638.34;5012342;28;20046;-59
2022/04/01 05:17:36;;;;;;;7.90;3.20;;;;;;;-0.76;100.00;100632.34;5011013;28;20145;-59
2022/04/01 05:20:11;;;;;;;9.25;3.97;;;;;;;-0.82;100.00;100641.06;5010253;28;20576;-60
2022/04/01 05:22:48;;;;;;;8.85;3.55;;;;;;;-0.82;100.00;100648.81;5012455;28;20104;-59
2022/04/01 05:25:19;;;;;;;6.50;3.17;;;;;;;-0.83;100.00;100667.78;5011439;28;20533;-59
2022/04/01 05:27:50;;;;;;;7.63;3.13;;;;;;;-0.80;100.00;100651.38;5011018;28;20052;-59
2022/04/01 05:30:23;;;;;;;6.72;3.20;;;;;;;-0.78;100.00;100658.19;5011729;28;20042;-59
2022/04/01 05:33:01;;;;;;;6.07;3.55;;;;;;;-0.82;100.00;100664.28;5011262;28;20560;-59
2022/04/01 05:35:31;;;;;;;6.20;3.17;;;;;;;-0.84;100.00;100671.25;5010067;28;20527;-58
2022/04/01 05:38:00;;;;;;;6.60;2.88;;;;;;;-0.79;100.00;100660.81;5011379;28;20046;-59
2022/04/01 05:40:30;;;;;;;6.70;3.10;;;;;;;-0.78;100.00;100670.25;5011315;28;20058;-59
2022/04/01 05:43:00;;;;;;;5.40;2.88;;;;;;;-0.82;100.00;100668.63;5011217;28;20509;-58
2022/04/01 05:45:30;;;;;;;8.70;3.30;;;;;;;-0.81;100.00;100676.34;5011443;28;20060;-59
2022/04/01 05:47:59;;;;;;;7.28;3.13;;;;;;;-0.81;100.00;100685.81;5010712;28;20125;-58
2022/04/01 05:50:28;;;;;;;8.90;3.42;;;;;;;-0.80;100.00;100683.22;5009544;28;20065;-58
2022/04/01 05:52:56;;;;;;;8.30;3.30;;;;;;;-0.77;100.00;100690.06;5011399;28;20555;-58
2022/04/01 05:55:26;;;;;;;7.93;3.30;;;;;;;-0.78;100.00;100691.75;5010974;28;20134;-59
2022/04/01 05:57:55;;;;;;;6.82;3.30;;;;;;;-0.79;100.00;100684.91;5010893;28;20041;-59
2022/04/01 06:00:23;;;;;;;6.60;3.60;;;;;;;-0.78;100.00;100683.19;5010994;28;20042;-59
2022/04/01 06:03:23;;;;;;;7.35;3.22;;;;;;;-0.77;100.00;100698.63;5010504;28;20138;-60
2022/04/01 06:05:56;;;;;;;6.50;3.10;;;;;;;-0.75;100.00;100696.88;5009551;28;20405;-60
2022/04/01 06:08:39;;;;;;;6.45;3.25;;;;;;;-0.74;100.00;100701.16;5010026;28;20420;-60
2022/04/01 06:11:15;;;;;;;7.43;3.25;;;;;;;-0.66;100.00;100705.31;5010773;28;20049;-58
2022/04/01 06:14:01;;;;;;;10.20;3.95;;;;;;;-0.67;100.00;100712.22;5010996;28;20044;-60
2022/04/01 06:16:38;;;;;;;7.43;3.03;;;;;;;-0.64;100.00;100721.63;5011094;28;20500;-58
2022/04/01 06:19:19;;;;;;;8.05;3.40;;;;;;;-0.65;100.00;100714.78;5008724;28;20058;-58
2022/04/01 06:21:49;;;;;;;5.20;2.60;;;;;;;-0.68;100.00;100729.44;5010170;28;20688;-59
2022/04/01 06:24:29;;;;;;;8.15;2.88;;;;;;;-0.64;100.00;100726.78;5010822;28;20084;-59
2022/04/01 06:27:00;;;;;;;7.40;3.35;;;;;;;-0.67;100.00;100727.69;5010255;28;20045;-58
2022/04/01 06:29:39;;;;;;;6.70;3.00;;;;;;;-0.64;100.00;100738.00;5010507;28;20065;-58
2022/04/01 06:32:13;;;;;;;7.63;3.22;;;;;;;-0.64;100.00;100734.53;5010258;28;20164;-59
2022/04/01 06:35:03;;;;;;;6.15;3.28;;;;;;;-0.65;100.00;100744.03;4998709;28;20061;-58
2022/04/01 06:37:37;;;;;;;8.48;3.03;;;;;;;-0.63;100.00;100744.00;5005485;28;20420;-59
2022/04/01 06:40:10;;;;;;;5.75;2.80;;;;;;;-0.63;100.00;100750.00;5004837;28;20057;-58
2022/04/01 06:42:40;;;;;;;6.25;3.00;;;;;;;-0.59;100.00;100754.22;5002492;28;20141;-59
2022/04/01 06:45:10;;;;;;;6.03;2.90;;;;;;;-0.59;100.00;100756.81;5009651;28;20049;-59
2022/04/01 06:47:39;;;;;;;6.45;3.00;;;;;;;-0.58;100.00;100763.69;5009374;28;20050;-58
2022/04/01 06:50:09;;;;;;;5.90;2.60;;;;;;;-0.62;100.00;100768.97;5007688;28;20049;-59
2022/04/01 06:52:38;;;;;;;6.00;3.05;;;;;;;-0.60;100.00;100775.81;5010384;28;20045;-58
2022/04/01 06:55:08;;;;;;;8.18;3.30;;;;;;;-0.58;100.00;100760.28;5010008;28;20045;-59
2022/04/01 06:57:36;;;;;;;7.10;2.70;;;;;;;-0.57;100.00;100778.31;5010395;28;20575;-58
2022/04/01 07:00:08;;;;;;;7.00;2.70;;;;;;;-0.58;100.00;100781.78;5009715;28;20048;-58
2022/04/01 07:02:36;;;;;;;6.97;3.03;;;;;;;-0.49;100.00;100782.47;5009611;28;20064;-58
2022/04/01 07:05:05;;;;;;;6.05;3.00;;;;;;;-0.54;100.00;100785.16;5008379;28;20050;-58
2022/04/01 07:07:35;;;;;;;7.30;3.00;;;;;;;-0.55;100.00;100797.22;5010003;28;20048;-58
2022/04/01 07:10:03;;;;;;;6.32;3.05;;;;;;;-0.47;100.00;100801.41;5009513;28;20048;-59
2022/04/01 07:12:32;;;;;;;6.40;2.60;;;;;;;-0.52;100.00;100804.06;5009478;28;20050;-59
2022/04/01 07:15:00;;;;;;;6.47;2.70;;;;;;;-0.50;100.00;100804.88;5009732;28;20720;-58
2022/04/01 07:17:28;;;;;;;6.45;2.92;;;;;;;-0.45;100.00;100807.38;5008754;28;20080;-58
2022/04/01 07:19:56;;;;;;;5.85;3.08;;;;;;;-0.48;100.00;100802.28;5007984;28;20066;-58
2022/04/01 07:22:25;;;;;;;5.57;2.72;;;;;;;-0.44;100.00;100809.09;5009722;28;20049;-58
2022/04/01 07:24:54;;;;;;;8.13;2.80;;;;;;;-0.43;100.00;100810.78;5009684;28;20133;-59
2022/04/01 07:27:22;;;;;;;8.05;3.40;;;;;;;-0.38;100.00;100809.81;5008813;28;20064;-58
2022/04/01 07:29:50;;;;;;;5.78;2.47;;;;;;;-0.32;100.00;100820.91;5008878;28;20049;-59
2022/04/01 07:32:32;;;;;;;6.43;3.03;;;;;;;-0.37;100.00;100816.69;5008293;28;20124;-58
2022/04/01 07:35:01;;;;;;;7.80;2.75;;;;;;;-0.30;100.00;100817.41;5007853;28;20060;-58
2022/04/01 07:37:31;;;;;;;7.68;2.70;;;;;;;-0.27;100.00;100822.53;5009431;28;20041;-58
2022/04/01 07:40:20;;;;;;;6.07;2.40;;;;;;;-0.31;100.00;100823.47;5009356;28;20429;-58
2022/04/01 07:42:49;;;;;;;5.88;2.45;;;;;;;-0.33;100.00;100822.63;5009482;28;20606;-57
2022/04/01 07:45:18;;;;;;;6.10;2.35;;;;;;;-0.27;100.00;100832.84;5009202;28;20573;-58
2022/04/01 07:47:47;;;;;;;5.32;2.75;;;;;;;-0.23;100.00;100836.22;5005508;28;20054;-58
2022/04/01 07:50:17;;;;;;;7.53;2.95;;;;;;;-0.23;100.00;100833.63;5007478;28;20053;-59
2022/04/01 07:52:46;;;;;;;6.82;2.42;;;;;;;-0.20;100.00;100831.84;5008729;28;20133;-59
2022/04/01 07:55:16;;;;;;;8.27;3.05;;;;;;;-0.18;100.00;100836.97;5008634;28;20112;-58
2022/04/01 07:57:47;;;;;;;5.93;2.40;;;;;;;-0.15;100.00;100839.53;5008462;28;20041;-58
2022/04/01 08:00:34;;;;;;;4.70;2.42;;;;;;;-0.08;100.00;100829.88;5008675;28;20056;-58
2022/04/01 08:03:03;;;;;;;5.72;2.55;;;;;;;-0.04;100.00;100841.84;5007255;28;20063;-57
2022/04/01 08:05:31;;;;;;;4.95;2.20;;;;;;;0.00;100.00;100835.75;5006705;28;20412;-58
2022/04/01 08:07:59;;;;;;;7.63;2.00;;;;;;;0.05;100.00;100846.84;5008688;28;20370;-58
2022/04/01 08:10:27;;;;;;;4.82;2.38;;;;;;;0.11;100.00;100838.09;5008038;28;20056;-59
2022/04/01 08:12:56;;;;;;;4.50;2.08;;;;;;;0.19;100.00;100843.94;5007062;28;20070;-58
2022/04/01 08:15:24;;;;;;;3.40;1.55;;;;;;;0.29;100.00;100844.63;5007873;28;20056;-58
2022/04/01 08:17:58;;;;;;;4.07;2.00;;;;;;;0.40;100.00;100845.22;5006948;28;20100;-57
2022/04/01 08:20:27;;;;;;;6.13;1.90;;;;;;;0.29;100.00;100845.44;5006635;28;20125;-57
2022/04/01 08:22:55;;;;;;;4.65;1.70;;;;;;;0.30;100.00;100846.28;5008216;28;20041;-58
2022/04/01 08:25:23;;;;;;;4.07;1.58;;;;;;;0.28;100.00;100851.50;5008534;28;20442;-57
2022/04/01 08:28:00;;;;;;;4.68;1.60;;;;;;;0.31;100.00;100850.59;5008263;28;20052;-58
2022/04/01 08:30:29;;;;;;;3.63;1.80;;;;;;;0.31;100.00;100853.19;5007535;28;20058;-59
2022/04/01 08:32:57;;;;;;;3.92;1.42;;;;;;;0.39;100.00;100859.03;5007680;28;20054;-59
2022/04/01 08:35:25;;;;;;;4.78;2.22;;;;;;;0.37;100.00;100853.06;5006681;28;20517;-58
2022/04/01 08:37:55;;;;;;;3.40;1.45;;;;;;;0.47;100.00;100859.72;5008101;28;20511;-59
2022/04/01 08:40:23;;;;;;;3.47;1.50;;;;;;;0.44;100.00;100867.53;5008586;28;20133;-58
2022/04/01 08:42:51;;;;;;;2.22;1.27;;;;;;;0.42;100.00;100869.31;5010745;28;20049;-58
2022/04/01 08:45:21;;;;;;;5.00;1.60;;;;;;;0.48;100.00;100874.34;5011689;28;20060;-59
2022/04/01 08:47:50;;;;;;;3.03;1.38;;;;;;;0.47;99.86;100875.22;5010791;28;20057;-58
2022/04/01 08:50:18;;;;;;;2.90;1.58;;;;;;;0.50;100.00;100876.91;5010652;28;20517;-59
2022/04/01 08:52:46;;;;;;;3.97;1.52;;;;;;;0.60;99.56;100890.47;5012271;28;20037;-58
2022/04/01 08:55:14;;;;;;;3.47;1.45;;;;;;;0.67;100.00;100884.28;5011914;28;20046;-58
2022/04/01 08:57:43;;;;;;;4.07;1.50;;;;;;;0.66;100.00;100892.94;5009077;28;20116;-58
2022/04/01 09:00:35;;;;;;;5.00;1.65;;;;;;;0.69;99.99;100898.03;5010494;28;20053;-58
2022/04/01 09:03:06;;;;;;;3.90;1.63;;;;;;;0.78;99.33;100892.66;5011430;28;20064;-59
2022/04/01 09:05:35;;;;;;;2.88;1.40;;;;;;;0.92;100.00;100901.84;5010838;28;20128;-58
2022/04/01 09:08:05;;;;;;;4.05;1.58;;;;;;;0.98;98.71;100904.25;5010534;28;20104;-58
2022/04/01 09:10:50;;;;;;;3.05;1.60;;;;;;;0.99;98.32;100906.81;5011775;28;20528;-58
2022/04/01 09:13:19;;;;;;;4.25;1.73;;;;;;;1.12;99.75;100912.56;5011858;28;20053;-58
2022/04/01 09:15:49;;;;;;;3.88;1.50;;;;;;;1.07;97.59;100908.38;5011322;28;20046;-58
2022/04/01 09:18:39;;;;;;;5.60;1.42;;;;;;;1.15;99.13;100922.84;5006294;28;20042;-57
2022/04/01 09:21:08;;;;;;;5.05;1.80;;;;;;;1.22;99.03;100917.53;5008852;28;20073;-57
2022/04/01 09:23:38;;;;;;;6.72;1.73;;;;;;;1.34;100.00;100927.56;5011302;28;20061;-57
2022/04/01 09:26:07;;;;;;;4.20;1.67;;;;;;;1.37;100.00;100932.66;5010603;28;20054;-58
2022/04/01 09:28:39;;;;;;;4.72;2.08;;;;;;;1.30;99.30;100928.53;5009538;28;20054;-58
2022/04/01 09:31:10;;;;;;;6.00;1.90;;;;;;;1.31;100.00;100935.41;5009602;28;20422;-58
2022/04/01 09:33:59;;;;;;;13.60;4.20;;;;;;;1.46;98.37;100939.34;5010094;28;20393;-58
2022/04/01 09:36:29;;;;;;;7.20;3.33;;;;;;;1.55;98.30;100939.13;5010038;28;20046;-58
2022/04/01 09:39:00;;;;;;;5.80;2.35;;;;;;;1.58;98.51;100930.41;5010678;28;20061;-58
2022/04/01 09:41:31;;;;;;;5.97;1.85;;;;;;;1.62;98.90;100934.63;5010963;28;20068;-58
2022/04/01 09:44:22;;;;;;;4.38;2.20;;;;;;;1.57;98.58;100934.75;5010687;28;20041;-58
2022/04/01 09:46:53;;;;;;;5.65;2.38;;;;;;;1.66;100.00;100938.84;5011181;28;20050;-58
2022/04/01 09:49:33;;;;;;;5.97;2.30;;;;;;;1.74;100.00;100946.41;5009794;28;20053;-58
2022/04/01 09:52:06;;;;;;;4.85;2.47;;;;;;;1.57;98.28;100946.84;5010316;28;20140;-57
2022/04/01 09:54:42;;;;;;;5.75;2.58;;;;;;;1.56;95.71;100952.94;5010155;28;20144;-57
2022/04/01 09:57:11;;;;;;;6.07;2.70;;;;;;;1.72;99.25;100954.25;5009152;28;20050;-57
2022/04/01 09:59:41;;;;;;;7.25;2.40;;;;;;;1.73;95.36;100950.75;5010593;28;20049;-57
2022/04/01 10:02:10;;;;;;;6.22;2.38;;;;;;;1.71;93.84;100949.09;5010622;28;20775;-56
2022/04/01 10:04:39;;;;;;;8.07;2.90;;;;;;;1.68;94.23;100963.84;5009458;28;20378;-55
2022/04/01 10:07:07;;;;;;;5.88;2.90;;;;;;;1.75;98.01;100964.53;5009445;28;20042;-55
2022/04/01 10:09:36;;;;;;;4.82;2.42;;;;;;;1.66;94.58;100957.84;5010528;28;20054;-56
2022/04/01 10:12:27;;;;;;;5.18;2.97;;;;;;;1.82;95.54;100966.06;5010209;28;20058;-55
2022/04/01 10:15:00;;;;;;;6.05;2.85;;;;;;;1.92;94.11;100960.63;5009982;28;20052;-55
2022/04/01 10:17:47;;;;;;;7.93;3.03;;;;;;;1.90;93.41;100960.69;5009543;28;20049;-56
2022/04/01 10:20:19;;;;;;;6.25;2.95;;;;;;;1.86;95.21;100962.50;5008530;28;20073;-56
2022/04/01 10:22:47;;;;;;;7.78;3.03;;;;;;;1.91;94.80;100956.31;5009602;28;20054;-56
2022/04/01 10:25:18;;;;;;;10.85;3.28;;;;;;;1.98;93.11;100976.88;5010430;28;20092;-56
2022/04/01 10:27:50;;;;;;;8.07;3.05;;;;;;;1.96;93.31;100967.44;5010305;28;20193;-57
2022/04/01 10:30:21;;;;;;;7.30;3.15;;;;;;;1.97;94.02;100957.00;5009709;28;20466;-57
2022/04/01 10:32:51;;;;;;;7.00;3.45;;;;;;;1.90;92.81;100962.44;5009198;28;20081;-60
2022/04/01 10:35:24;;;;;;;7.75;3.58;;;;;;;1.90;92.17;100965.88;5008869;28;20580;-59
2022/04/01 10:37:54;;;;;;;8.15;3.33;;;;;;;1.92;93.98;100963.22;5010029;28;20065;-60
2022/04/01 10:40:25;;;;;;;6.95;3.65;;;;;;;1.94;93.15;100974.44;5010035;28;20524;-60
2022/04/01 10:42:53;;;;;;;7.20;3.10;;;;;;;1.84;91.75;100972.06;5009273;28;20124;-60
2022/04/01 10:45:25;;;;;;;6.80;3.50;;;;;;;1.85;93.65;100971.19;5008915;28;20046;-59
2022/04/01 10:53:39;;;;;;;6.07;3.10;;;;;;;1.89;93.14;100974.53;5010060;28;20062;-58
2022/04/01 10:56:33;;;;;;;6.70;3.10;;;;;;;1.91;92.08;100977.94;5009963;28;20058;-59
2022/04/01 10:59:07;;;;;;;7.72;3.50;;;;;;;1.97;90.74;100982.97;5008995;28;20092;-58
2022/04/01 11:01:37;;;;;;;8.50;4.20;;;;;;;2.15;91.24;100985.94;5009549;28;20054;-59
2022/04/01 11:04:31;;;;;;;9.32;3.72;;;;;;;2.14;89.49;100976.44;5007738;28;20088;-59
2022/04/01 11:07:01;;;;;;;8.15;3.20;;;;;;;2.21;88.85;100978.00;5008111;28;20060;-58
2022/04/01 11:09:41;;;;;;;8.35;3.78;;;;;;;2.26;90.58;100989.09;5009806;28;20525;-58
2022/04/01 11:12:29;;;;;;;8.43;3.65;;;;;;;2.23;88.36;100981.38;5009968;28;20524;-58
2022/04/01 11:15:12;;;;;;;6.85;3.33;;;;;;;2.23;88.09;100988.34;5009483;28;20477;-58
2022/04/01 11:18:03;;;;;;;6.57;2.80;;;;;;;2.27;86.08;100995.97;5009459;28;20057;-58
2022/04/01 11:20:35;;;;;;;7.72;2.78;;;;;;;2.22;84.26;101016.00;5008119;28;20369;-58
2022/04/01 11:23:12;;;;;;;6.70;3.20;;;;;;;2.15;85.06;101010.13;5009978;28;21292;-58
2022/04/01 11:25:59;;;;;;;8.45;3.22;;;;;;;2.24;85.54;101008.22;5010105;28;20551;-58
2022/04/01 11:28:30;;;;;;;7.50;3.40;;;;;;;2.30;84.76;101005.44;5009818;28;20155;-59
2022/04/01 11:31:16;;;;;;;7.80;3.40;;;;;;;2.34;85.62;101022.63;5008650;28;20046;-58
2022/04/01 11:34:01;;;;;;;6.80;3.33;;;;;;;2.27;84.91;101028.88;5007953;28;20096;-58
2022/04/01 11:36:31;;;;;;;6.45;3.30;;;;;;;2.22;84.35;101016.00;5008645;28;20058;-58
2022/04/01 11:39:00;;;;;;;8.02;3.33;;;;;;;2.08;84.23;101016.41;5009542;28;20521;-58
2022/04/01 11:41:47;;;;;;;8.85;3.85;;;;;;;2.13;88.09;101034.47;5009241;28;20133;-58
2022/04/01 11:44:16;;;;;;;7.87;3.50;;;;;;;2.22;88.87;101022.97;5009302;28;20054;-58
2022/04/01 11:47:07;;;;;;;8.85;4.15;;;;;;;2.14;89.94;101031.81;5008946;28;20056;-58
2022/04/01 11:49:35;;;;;;;8.88;3.80;;;;;;;2.16;89.71;101032.59;5003677;28;20241;-58
2022/04/01 11:52:05;;;;;;;8.32;3.72;;;;;;;2.16;89.89;101040.41;5008320;28;20538;-59
2022/04/01 11:54:34;;;;;;;8.25;4.35;;;;;;;2.29;90.45;101035.75;5007664;28;20046;-59